sensor_id;sensor_type;location;lat;lon;timestamp;pressure;altitude;pressure_sealevel;temperature;humidity
65685;BME280;52405;50.844;-1.062;2023-02-07T00:00:37;104007.97;;;4.67;67.12
65685;BME280;52405;50.844;-1.062;2023-02-07T00:03:03;104025.06;;;4.67;66.57
65685;BME280;52405;50.844;-1.062;2023-02-07T00:05:31;104005.13;;;4.50;67.32
65685;BME280;52405;50.844;-1.062;2023-02-07T00:07:57;104020.94;;;4.53;67.65
65685;BME280;52405;50.844;-1.062;2023-02-07T00:10:22;104023.16;;;4.50;67.45
65685;BME280;52405;50.844;-1.062;2023-02-07T00:12:50;103981.56;;;4.31;67.42
65685;BME280;52405;50.844;-1.062;2023-02-07T00:15:15;104016.91;;;4.48;67.79
65685;BME280;52405;50.844;-1.062;2023-02-07T00:17:41;103992.53;;;4.37;67.54
65685;BME280;52405;50.844;-1.062;2023-02-07T00:20:07;104020.75;;;4.51;67.63
65685;BME280;52405;50.844;-1.062;2023-02-07T00:22:33;104011.38;;;4.52;67.90
65685;BME280;52405;50.844;-1.062;2023-02-07T00:24:59;104009.50;;;4.58;66.80
65685;BME280;52405;50.844;-1.062;2023-02-07T00:27:24;104010.41;;;4.58;67.66
65685;BME280;52405;50.844;-1.062;2023-02-07T00:29:52;104010.41;;;4.58;66.79
65685;BME280;52405;50.844;-1.062;2023-02-07T00:32:18;104006.75;;;4.56;67.26
65685;BME280;52405;50.844;-1.062;2023-02-07T00:34:46;104010.06;;;4.55;66.33
65685;BME280;52405;50.844;-1.062;2023-02-07T00:37:12;103985.19;;;4.40;66.44
65685;BME280;52405;50.844;-1.062;2023-02-07T00:39:38;104007.72;;;4.50;67.53
65685;BME280;52405;50.844;-1.062;2023-02-07T00:42:04;104002.56;;;4.50;67.59
65685;BME280;52405;50.844;-1.062;2023-02-07T00:44:30;103990.69;;;4.43;66.74
65685;BME280;52405;50.844;-1.062;2023-02-07T00:46:57;103996.16;;;4.46;66.63
65685;BME280;52405;50.844;-1.062;2023-02-07T00:49:25;104000.41;;;4.46;66.43
65685;BME280;52405;50.844;-1.062;2023-02-07T00:51:50;103993.41;;;4.44;67.36
65685;BME280;52405;50.844;-1.062;2023-02-07T00:54:16;103989.00;;;4.43;66.52
65685;BME280;52405;50.844;-1.062;2023-02-07T00:56:44;103985.91;;;4.39;67.10
65685;BME280;52405;50.844;-1.062;2023-02-07T00:59:12;103992.53;;;4.37;67.22
65685;BME280;52405;50.844;-1.062;2023-02-07T01:01:37;103987.63;;;4.31;67.28
65685;BME280;52405;50.844;-1.062;2023-02-07T01:04:03;103993.34;;;4.29;67.65
65685;BME280;52405;50.844;-1.062;2023-02-07T01:06:29;103992.25;;;4.27;67.71
65685;BME280;52405;50.844;-1.062;2023-02-07T01:09:00;103999.41;;;4.29;66.96
65685;BME280;52405;50.844;-1.062;2023-02-07T01:11:27;104006.56;;;4.24;66.72
65685;BME280;52405;50.844;-1.062;2023-02-07T01:13:53;104006.06;;;4.20;67.70
65685;BME280;52405;50.844;-1.062;2023-02-07T01:16:23;104002.59;;;4.19;68.40
65685;BME280;52405;50.844;-1.062;2023-02-07T01:18:49;104001.81;;;4.20;67.49
65685;BME280;52405;50.844;-1.062;2023-02-07T01:21:17;104000.91;;;4.20;68.35
65685;BME280;52405;50.844;-1.062;2023-02-07T01:23:44;104009.38;;;4.19;68.36
65685;BME280;52405;50.844;-1.062;2023-02-07T01:26:09;104015.28;;;4.18;67.82
65685;BME280;52405;50.844;-1.062;2023-02-07T01:28:35;104007.56;;;4.18;68.18
65685;BME280;52405;50.844;-1.062;2023-02-07T01:31:10;104011.56;;;4.23;68.65
65685;BME280;52405;50.844;-1.062;2023-02-07T01:33:37;104011.00;;;4.25;68.09
65685;BME280;52405;50.844;-1.062;2023-02-07T01:36:13;104011.72;;;4.24;67.25
65685;BME280;52405;50.844;-1.062;2023-02-07T01:38:40;104006.97;;;4.20;67.94
65685;BME280;52405;50.844;-1.062;2023-02-07T01:41:07;104012.91;;;4.12;67.25
65685;BME280;52405;50.844;-1.062;2023-02-07T01:43:33;104015.13;;;4.09;68.42
65685;BME280;52405;50.844;-1.062;2023-02-07T01:46:03;104006.34;;;4.00;68.16
65685;BME280;52405;50.844;-1.062;2023-02-07T01:48:35;104025.19;;;4.15;67.76
65685;BME280;52405;50.844;-1.062;2023-02-07T01:51:05;104016.41;;;4.13;68.07
65685;BME280;52405;50.844;-1.062;2023-02-07T01:53:36;104010.53;;;4.14;67.59
65685;BME280;52405;50.844;-1.062;2023-02-07T01:56:04;104008.16;;;4.08;67.66
65685;BME280;52405;50.844;-1.062;2023-02-07T01:58:34;104014.72;;;4.13;68.27
65685;BME280;52405;50.844;-1.062;2023-02-07T02:01:03;104014.19;;;4.16;67.99
65685;BME280;52405;50.844;-1.062;2023-02-07T02:03:31;104011.78;;;4.17;67.77
65685;BME280;52405;50.844;-1.062;2023-02-07T02:05:59;104014.00;;;4.14;67.23
65685;BME280;52405;50.844;-1.062;2023-02-07T02:08:27;104009.59;;;4.13;67.40
65685;BME280;52405;50.844;-1.062;2023-02-07T02:14:17;103986.31;;;4.04;67.22
65685;BME280;52405;50.844;-1.062;2023-02-07T02:17:26;103989.81;;;4.05;67.84
65685;BME280;52405;50.844;-1.062;2023-02-07T02:20:17;103998.56;;;4.14;67.11
65685;BME280;52405;50.844;-1.062;2023-02-07T02:23:14;103997.44;;;4.19;67.76
65685;BME280;52405;50.844;-1.062;2023-02-07T02:33:56;103978.94;;;4.08;66.56
65685;BME280;52405;50.844;-1.062;2023-02-07T02:36:48;103998.00;;;4.17;66.53
65685;BME280;52405;50.844;-1.062;2023-02-07T02:42:17;103986.63;;;4.15;67.47
65685;BME280;52405;50.844;-1.062;2023-02-07T02:44:52;103978.91;;;4.15;66.73
65685;BME280;52405;50.844;-1.062;2023-02-07T02:47:21;103981.47;;;4.15;66.75
65685;BME280;52405;50.844;-1.062;2023-02-07T02:49:49;103963.69;;;4.09;67.45
65685;BME280;52405;50.844;-1.062;2023-02-07T02:52:17;103957.84;;;4.03;67.58
65685;BME280;52405;50.844;-1.062;2023-02-07T02:54:43;103961.66;;;4.14;66.62
65685;BME280;52405;50.844;-1.062;2023-02-07T03:05:28;103960.72;;;4.13;67.51
65685;BME280;52405;50.844;-1.062;2023-02-07T03:13:11;103960.88;;;4.15;67.65
65685;BME280;52405;50.844;-1.062;2023-02-07T03:19:12;103939.44;;;4.07;67.26
65685;BME280;52405;50.844;-1.062;2023-02-07T03:21:27;103971.69;;;4.27;68.49
65685;BME280;52405;50.844;-1.062;2023-02-07T03:24:00;103967.94;;;4.32;68.53
65685;BME280;52405;50.844;-1.062;2023-02-07T03:26:27;103946.84;;;4.27;68.45
65685;BME280;52405;50.844;-1.062;2023-02-07T03:28:57;103962.19;;;4.41;69.68
65685;BME280;52405;50.844;-1.062;2023-02-07T03:31:24;103961.78;;;4.46;69.42
65685;BME280;52405;50.844;-1.062;2023-02-07T03:33:55;103958.63;;;4.48;69.02
65685;BME280;52405;50.844;-1.062;2023-02-07T03:36:32;103963.22;;;4.51;69.65
65685;BME280;52405;50.844;-1.062;2023-02-07T03:39:03;103966.72;;;4.51;69.89
65685;BME280;52405;50.844;-1.062;2023-02-07T03:41:48;103952.41;;;4.46;70.60
65685;BME280;52405;50.844;-1.062;2023-02-07T03:44:18;103941.03;;;4.44;69.64
65685;BME280;52405;50.844;-1.062;2023-02-07T03:46:48;103904.78;;;4.27;69.81
65685;BME280;52405;50.844;-1.062;2023-02-07T03:49:16;103959.66;;;4.57;69.90
65685;BME280;52405;50.844;-1.062;2023-02-07T03:51:46;103971.41;;;4.62;69.20
65685;BME280;52405;50.844;-1.062;2023-02-07T03:54:11;103947.44;;;4.48;69.48
65685;BME280;52405;50.844;-1.062;2023-02-07T03:56:37;103969.59;;;4.61;68.80
65685;BME280;52405;50.844;-1.062;2023-02-07T03:59:03;103973.78;;;4.61;69.74
65685;BME280;52405;50.844;-1.062;2023-02-07T04:01:28;103970.31;;;4.60;68.61
65685;BME280;52405;50.844;-1.062;2023-02-07T04:03:54;103974.56;;;4.60;68.43
65685;BME280;52405;50.844;-1.062;2023-02-07T04:06:19;103961.91;;;4.54;68.99
65685;BME280;52405;50.844;-1.062;2023-02-07T04:08:45;103965.56;;;4.56;68.22
65685;BME280;52405;50.844;-1.062;2023-02-07T04:11:11;103967.06;;;4.54;68.79
65685;BME280;52405;50.844;-1.062;2023-02-07T04:13:36;103963.06;;;4.49;68.89
65685;BME280;52405;50.844;-1.062;2023-02-07T04:16:04;103977.00;;;4.51;68.61
65685;BME280;52405;50.844;-1.062;2023-02-07T04:18:32;103977.22;;;4.46;67.68
65685;BME280;52405;50.844;-1.062;2023-02-07T04:21:03;103973.56;;;4.43;68.36
65685;BME280;52405;50.844;-1.062;2023-02-07T04:23:29;103976.16;;;4.43;68.56
65685;BME280;52405;50.844;-1.062;2023-02-07T04:25:55;103963.09;;;4.42;69.14
65685;BME280;52405;50.844;-1.062;2023-02-07T04:28:21;103948.28;;;4.32;68.65
65685;BME280;52405;50.844;-1.062;2023-02-07T04:30:46;103989.50;;;4.48;69.26
65685;BME280;52405;50.844;-1.062;2023-02-07T04:33:12;103985.13;;;4.47;69.54
65685;BME280;52405;50.844;-1.062;2023-02-07T04:35:38;103986.63;;;4.45;69.97
65685;BME280;52405;50.844;-1.062;2023-02-07T04:38:03;103984.78;;;4.44;69.55
65685;BME280;52405;50.844;-1.062;2023-02-07T04:40:29;103969.75;;;4.40;69.93
65685;BME280;52405;50.844;-1.062;2023-02-07T04:42:55;103987.34;;;4.44;70.74
65685;BME280;52405;50.844;-1.062;2023-02-07T04:45:20;103977.97;;;4.44;70.58
65685;BME280;52405;50.844;-1.062;2023-02-07T04:47:46;103961.84;;;4.38;70.13
65685;BME280;52405;50.844;-1.062;2023-02-07T04:50:11;103971.91;;;4.44;69.90
65685;BME280;52405;50.844;-1.062;2023-02-07T04:52:37;103971.19;;;4.45;69.30
65685;BME280;52405;50.844;-1.062;2023-02-07T04:55:04;103959.94;;;4.44;68.94
65685;BME280;52405;50.844;-1.062;2023-02-07T04:57:31;103957.59;;;4.39;69.22
65685;BME280;52405;50.844;-1.062;2023-02-07T04:59:56;103971.72;;;4.42;70.25
65685;BME280;52405;50.844;-1.062;2023-02-07T05:02:22;103978.19;;;4.39;69.33
65685;BME280;52405;50.844;-1.062;2023-02-07T05:04:47;103980.97;;;4.33;69.93
65685;BME280;52405;50.844;-1.062;2023-02-07T05:07:12;103973.84;;;4.31;69.61
65685;BME280;52405;50.844;-1.062;2023-02-07T05:09:40;103947.47;;;4.17;69.97
65685;BME280;52405;50.844;-1.062;2023-02-07T05:12:06;103975.84;;;4.33;70.37
65685;BME280;52405;50.844;-1.062;2023-02-07T05:14:32;103970.13;;;4.36;71.22
65685;BME280;52405;50.844;-1.062;2023-02-07T05:16:58;103969.38;;;4.37;70.60
65685;BME280;52405;50.844;-1.062;2023-02-07T05:19:23;103974.72;;;4.38;70.80
65685;BME280;52405;50.844;-1.062;2023-02-07T05:21:48;103961.47;;;4.35;70.80
65685;BME280;52405;50.844;-1.062;2023-02-07T05:24:14;103952.13;;;4.36;70.54
65685;BME280;52405;50.844;-1.062;2023-02-07T05:26:42;103964.94;;;4.43;70.45
65685;BME280;52405;50.844;-1.062;2023-02-07T05:29:07;103967.34;;;4.41;70.73
65685;BME280;52405;50.844;-1.062;2023-02-07T05:31:33;103965.84;;;4.43;70.50
65685;BME280;52405;50.844;-1.062;2023-02-07T05:34:17;103964.38;;;4.46;71.35
65685;BME280;52405;50.844;-1.062;2023-02-07T05:36:45;103966.75;;;4.44;70.94
65685;BME280;52405;50.844;-1.062;2023-02-07T05:39:13;103959.25;;;4.38;70.66
65685;BME280;52405;50.844;-1.062;2023-02-07T05:41:38;103951.19;;;4.35;71.53
65685;BME280;52405;50.844;-1.062;2023-02-07T05:44:04;103979.41;;;4.50;70.85
65685;BME280;52405;50.844;-1.062;2023-02-07T05:46:31;103968.56;;;4.52;71.02
65685;BME280;52405;50.844;-1.062;2023-02-07T05:48:56;103970.38;;;4.53;71.04
65685;BME280;52405;50.844;-1.062;2023-02-07T05:51:22;103972.22;;;4.54;71.03
65685;BME280;52405;50.844;-1.062;2023-02-07T05:53:48;103977.69;;;4.57;71.07
65685;BME280;52405;50.844;-1.062;2023-02-07T05:56:13;103967.44;;;4.50;71.57
65685;BME280;52405;50.844;-1.062;2023-02-07T05:58:38;103984.84;;;4.60;71.01
65685;BME280;52405;50.844;-1.062;2023-02-07T06:01:04;103975.09;;;4.57;70.45
65685;BME280;52405;50.844;-1.062;2023-02-07T06:03:32;103973.47;;;4.58;70.01
65685;BME280;52405;50.844;-1.062;2023-02-07T06:05:57;103975.88;;;4.56;70.25
65685;BME280;52405;50.844;-1.062;2023-02-07T06:08:22;103977.69;;;4.57;70.32
65685;BME280;52405;50.844;-1.062;2023-02-07T06:10:48;103977.53;;;4.56;70.31
65685;BME280;52405;50.844;-1.062;2023-02-07T06:13:16;103973.13;;;4.55;69.16
65685;BME280;52405;50.844;-1.062;2023-02-07T06:15:41;103972.75;;;4.52;69.32
65685;BME280;52405;50.844;-1.062;2023-02-07T06:18:09;103970.94;;;4.51;70.05
65685;BME280;52405;50.844;-1.062;2023-02-07T06:20:37;103977.34;;;4.54;69.88
65685;BME280;52405;50.844;-1.062;2023-02-07T06:23:03;103976.78;;;4.57;69.89
65685;BME280;52405;50.844;-1.062;2023-02-07T06:25:28;103972.72;;;4.59;70.32
65685;BME280;52405;50.844;-1.062;2023-02-07T06:27:58;103969.06;;;4.57;69.76
65685;BME280;52405;50.844;-1.062;2023-02-07T06:30:25;103965.75;;;4.58;70.50
65685;BME280;52405;50.844;-1.062;2023-02-07T06:32:50;103977.81;;;4.66;70.44
65685;BME280;52405;50.844;-1.062;2023-02-07T06:35:16;103984.22;;;4.70;70.88
65685;BME280;52405;50.844;-1.062;2023-02-07T06:37:41;103984.94;;;4.69;70.46
65685;BME280;52405;50.844;-1.062;2023-02-07T06:40:07;103985.13;;;4.70;70.93
65685;BME280;52405;50.844;-1.062;2023-02-07T06:42:33;103986.06;;;4.71;70.60
65685;BME280;52405;50.844;-1.062;2023-02-07T06:44:59;103987.03;;;4.64;69.53
65685;BME280;52405;50.844;-1.062;2023-02-07T06:47:24;104003.38;;;4.64;69.16
65685;BME280;52405;50.844;-1.062;2023-02-07T06:49:50;103997.91;;;4.61;69.42
65685;BME280;52405;50.844;-1.062;2023-02-07T06:52:18;103998.44;;;4.59;69.38
65685;BME280;52405;50.844;-1.062;2023-02-07T06:54:43;104002.53;;;4.57;69.91
65685;BME280;52405;50.844;-1.062;2023-02-07T06:57:09;103997.59;;;4.51;69.00
65685;BME280;52405;50.844;-1.062;2023-02-07T06:59:35;103995.25;;;4.46;69.61
65685;BME280;52405;50.844;-1.062;2023-02-07T07:02:01;103999.13;;;4.42;68.91
65685;BME280;52405;50.844;-1.062;2023-02-07T07:04:28;103984.81;;;4.37;69.07
65685;BME280;52405;50.844;-1.062;2023-02-07T07:06:53;103993.63;;;4.39;69.35
65685;BME280;52405;50.844;-1.062;2023-02-07T07:09:19;103991.06;;;4.39;68.63
65685;BME280;52405;50.844;-1.062;2023-02-07T07:11:49;103997.38;;;4.34;68.04
65685;BME280;52405;50.844;-1.062;2023-02-07T07:14:14;104004.91;;;4.32;68.94
65685;BME280;52405;50.844;-1.062;2023-02-07T07:16:44;104011.53;;;4.30;69.29
65685;BME280;52405;50.844;-1.062;2023-02-07T07:19:12;103972.84;;;4.14;68.59
65685;BME280;52405;50.844;-1.062;2023-02-07T07:21:38;104009.69;;;4.29;68.15
65685;BME280;52405;50.844;-1.062;2023-02-07T07:24:04;103986.97;;;4.18;68.64
65685;BME280;52405;50.844;-1.062;2023-02-07T07:26:30;104011.53;;;4.30;68.66
65685;BME280;52405;50.844;-1.062;2023-02-07T07:28:55;104003.47;;;4.27;68.48
65685;BME280;52405;50.844;-1.062;2023-02-07T07:31:24;103984.59;;;4.19;68.40
65685;BME280;52405;50.844;-1.062;2023-02-07T07:33:52;104012.84;;;4.27;68.02
65685;BME280;52405;50.844;-1.062;2023-02-07T07:36:18;103999.44;;;4.22;67.84
65685;BME280;52405;50.844;-1.062;2023-02-07T07:38:43;103986.44;;;4.13;67.84
65685;BME280;52405;50.844;-1.062;2023-02-07T07:41:09;103954.03;;;3.92;68.40
65685;BME280;52405;50.844;-1.062;2023-02-07T07:43:34;104008.81;;;4.21;67.86
65685;BME280;52405;50.844;-1.062;2023-02-07T07:46:00;103972.75;;;3.98;68.20
65685;BME280;52405;50.844;-1.062;2023-02-07T07:48:26;104015.97;;;4.24;67.92
65685;BME280;52405;50.844;-1.062;2023-02-07T07:50:52;104024.59;;;4.24;67.44
65685;BME280;52405;50.844;-1.062;2023-02-07T07:53:20;104017.63;;;4.23;68.06
65685;BME280;52405;50.844;-1.062;2023-02-07T07:55:50;103990.88;;;4.07;67.81
65685;BME280;52405;50.844;-1.062;2023-02-07T07:58:20;103981.31;;;4.06;67.64
65685;BME280;52405;50.844;-1.062;2023-02-07T08:00:45;104027.69;;;4.29;67.38
65685;BME280;52405;50.844;-1.062;2023-02-07T08:03:13;104022.78;;;4.23;67.65
65685;BME280;52405;50.844;-1.062;2023-02-07T08:05:42;104032.13;;;4.30;68.34
65685;BME280;52405;50.844;-1.062;2023-02-07T08:08:08;104030.63;;;4.32;67.41
65685;BME280;52405;50.844;-1.062;2023-02-07T08:10:34;104041.84;;;4.33;68.29
65685;BME280;52405;50.844;-1.062;2023-02-07T08:13:00;104029.88;;;4.33;67.78
65685;BME280;52405;50.844;-1.062;2023-02-07T08:15:28;104028.38;;;4.35;68.50
65685;BME280;52405;50.844;-1.062;2023-02-07T08:17:53;104038.31;;;4.39;67.95
65685;BME280;52405;50.844;-1.062;2023-02-07T08:20:19;104042.31;;;4.44;68.45
65685;BME280;52405;50.844;-1.062;2023-02-07T08:22:47;104029.78;;;4.48;68.82
65685;BME280;52405;50.844;-1.062;2023-02-07T08:25:15;104034.16;;;4.56;69.21
65685;BME280;52405;50.844;-1.062;2023-02-07T08:27:43;104038.91;;;4.60;68.25
65685;BME280;52405;50.844;-1.062;2023-02-07T08:30:10;104040.50;;;4.67;69.35
65685;BME280;52405;50.844;-1.062;2023-02-07T08:32:37;104039.38;;;4.72;69.30
65685;BME280;52405;50.844;-1.062;2023-02-07T08:35:04;104038.06;;;4.75;69.11
65685;BME280;52405;50.844;-1.062;2023-02-07T08:37:30;104041.66;;;4.85;68.65
65685;BME280;52405;50.844;-1.062;2023-02-07T08:39:55;104039.63;;;4.89;68.43
65685;BME280;52405;50.844;-1.062;2023-02-07T08:42:22;104044.72;;;4.96;69.13
65685;BME280;52405;50.844;-1.062;2023-02-07T08:44:49;104042.03;;;5.03;69.83
65685;BME280;52405;50.844;-1.062;2023-02-07T08:47:15;104039.09;;;5.08;69.48
65685;BME280;52405;50.844;-1.062;2023-02-07T08:49:42;104036.47;;;5.15;69.85
65685;BME280;52405;50.844;-1.062;2023-02-07T08:52:08;104043.78;;;5.19;69.92
65685;BME280;52405;50.844;-1.062;2023-02-07T08:54:33;104044.38;;;5.32;69.05
65685;BME280;52405;50.844;-1.062;2023-02-07T08:56:59;104031.66;;;5.34;69.09
65685;BME280;52405;50.844;-1.062;2023-02-07T08:59:25;104032.66;;;5.43;69.78
65685;BME280;52405;50.844;-1.062;2023-02-07T09:01:50;104042.16;;;5.51;69.47
65685;BME280;52405;50.844;-1.062;2023-02-07T09:04:16;104036.91;;;5.58;68.55
65685;BME280;52405;50.844;-1.062;2023-02-07T09:06:41;104046.75;;;5.70;68.88
65685;BME280;52405;50.844;-1.062;2023-02-07T09:09:07;104041.66;;;5.78;68.51
65685;BME280;52405;50.844;-1.062;2023-02-07T09:11:34;104038.09;;;5.85;69.28
65685;BME280;52405;50.844;-1.062;2023-02-07T09:14:00;104039.34;;;5.89;68.68
65685;BME280;52405;50.844;-1.062;2023-02-07T09:16:25;104059.41;;;6.07;68.61
65685;BME280;52405;50.844;-1.062;2023-02-07T09:18:51;104025.78;;;5.98;68.59
65685;BME280;52405;50.844;-1.062;2023-02-07T09:21:19;104058.72;;;6.33;68.37
65685;BME280;52405;50.844;-1.062;2023-02-07T09:23:45;104047.22;;;6.38;68.16
65685;BME280;52405;50.844;-1.062;2023-02-07T09:26:15;104048.09;;;6.54;67.99
65685;BME280;52405;50.844;-1.062;2023-02-07T09:28:44;104060.69;;;6.85;67.61
65685;BME280;52405;50.844;-1.062;2023-02-07T09:31:11;104057.00;;;7.07;66.73
65685;BME280;52405;50.844;-1.062;2023-02-07T09:33:37;104058.94;;;7.34;66.25
65685;BME280;52405;50.844;-1.062;2023-02-07T09:36:03;104042.41;;;7.50;65.13
65685;BME280;52405;50.844;-1.062;2023-02-07T09:38:29;104035.72;;;7.69;64.83
65685;BME280;52405;50.844;-1.062;2023-02-07T09:40:57;104050.34;;;7.95;63.27
65685;BME280;52405;50.844;-1.062;2023-02-07T09:44:03;104066.22;;;8.07;62.96
65685;BME280;52405;50.844;-1.062;2023-02-07T09:46:45;104063.59;;;8.16;62.64
65685;BME280;52405;50.844;-1.062;2023-02-07T09:49:42;104056.91;;;8.26;62.59
65685;BME280;52405;50.844;-1.062;2023-02-07T09:52:17;104066.34;;;8.43;63.07
65685;BME280;52405;50.844;-1.062;2023-02-07T09:54:48;104066.03;;;8.58;62.30
65685;BME280;52405;50.844;-1.062;2023-02-07T10:00:01;104075.56;;;8.94;60.14
65685;BME280;52405;50.844;-1.062;2023-02-07T10:02:45;104076.59;;;9.04;59.81
65685;BME280;52405;50.844;-1.062;2023-02-07T10:05:18;104068.19;;;9.07;59.07
65685;BME280;52405;50.844;-1.062;2023-02-07T10:07:45;104065.69;;;9.17;59.57
65685;BME280;52405;50.844;-1.062;2023-02-07T10:10:15;104054.06;;;9.22;59.46
65685;BME280;52405;50.844;-1.062;2023-02-07T10:15:42;104066.44;;;9.72;58.05
65685;BME280;52405;50.844;-1.062;2023-02-07T10:18:21;104068.94;;;9.89;58.26
65685;BME280;52405;50.844;-1.062;2023-02-07T10:31:03;104068.13;;;10.76;55.95
65685;BME280;52405;50.844;-1.062;2023-02-07T10:33:35;104050.13;;;10.88;55.08
65685;BME280;52405;50.844;-1.062;2023-02-07T10:36:06;104060.28;;;10.95;54.97
65685;BME280;52405;50.844;-1.062;2023-02-07T10:41:26;104038.66;;;10.86;54.15
65685;BME280;52405;50.844;-1.062;2023-02-07T10:43:54;104057.69;;;11.06;54.29
65685;BME280;52405;50.844;-1.062;2023-02-07T10:46:23;104068.13;;;11.16;53.55
65685;BME280;52405;50.844;-1.062;2023-02-07T10:48:54;104054.19;;;11.15;53.42
65685;BME280;52405;50.844;-1.062;2023-02-07T10:54:14;104052.81;;;11.40;52.54
65685;BME280;52405;50.844;-1.062;2023-02-07T10:56:47;104063.88;;;11.47;53.21
65685;BME280;52405;50.844;-1.062;2023-02-07T10:59:37;104057.63;;;11.55;52.80
65685;BME280;52405;50.844;-1.062;2023-02-07T11:02:42;104051.66;;;11.56;52.10
65685;BME280;52405;50.844;-1.062;2023-02-07T11:08:20;104043.41;;;11.72;52.25
65685;BME280;52405;50.844;-1.062;2023-02-07T11:10:51;104034.56;;;11.81;52.63
65685;BME280;52405;50.844;-1.062;2023-02-07T11:13:23;103990.44;;;11.72;52.11
65685;BME280;52405;50.844;-1.062;2023-02-07T11:16:04;104035.72;;;12.05;51.28
65685;BME280;52405;50.844;-1.062;2023-02-07T11:18:36;104039.38;;;12.17;51.72
65685;BME280;52405;50.844;-1.062;2023-02-07T11:23:53;104015.50;;;12.12;50.48
65685;BME280;52405;50.844;-1.062;2023-02-07T11:26:21;104012.53;;;12.08;50.58
65685;BME280;52405;50.844;-1.062;2023-02-07T11:29:21;104021.63;;;12.13;50.45
65685;BME280;52405;50.844;-1.062;2023-02-07T11:31:54;104018.81;;;12.00;50.64
65685;BME280;52405;50.844;-1.062;2023-02-07T11:34:44;104022.56;;;12.03;51.22
65685;BME280;52405;50.844;-1.062;2023-02-07T11:45:30;104015.91;;;12.17;51.16
65685;BME280;52405;50.844;-1.062;2023-02-07T11:47:56;104010.00;;;12.30;50.57
65685;BME280;52405;50.844;-1.062;2023-02-07T11:50:29;104009.03;;;12.40;50.23
65685;BME280;52405;50.844;-1.062;2023-02-07T11:52:59;104024.94;;;12.43;49.50
65685;BME280;52405;50.844;-1.062;2023-02-07T11:55:42;104020.75;;;12.45;48.78
65685;BME280;52405;50.844;-1.062;2023-02-07T11:58:18;103984.22;;;12.23;49.18
65685;BME280;52405;50.844;-1.062;2023-02-07T12:00:44;104003.63;;;12.26;49.98
65685;BME280;52405;50.844;-1.062;2023-02-07T12:03:22;103992.19;;;12.14;50.28
65685;BME280;52405;50.844;-1.062;2023-02-07T12:05:54;104011.06;;;12.22;49.99
65685;BME280;52405;50.844;-1.062;2023-02-07T12:08:23;104002.06;;;12.18;50.15
65685;BME280;52405;50.844;-1.062;2023-02-07T12:10:56;104004.44;;;12.15;50.30
65685;BME280;52405;50.844;-1.062;2023-02-07T12:16:00;104020.09;;;12.15;49.66
65685;BME280;52405;50.844;-1.062;2023-02-07T12:18:50;103994.94;;;12.05;49.72
65685;BME280;52405;50.844;-1.062;2023-02-07T12:24:04;103975.44;;;11.80;49.29
65685;BME280;52405;50.844;-1.062;2023-02-07T12:26:36;104016.06;;;11.98;49.64
65685;BME280;52405;50.844;-1.062;2023-02-07T12:32:09;104014.38;;;11.88;49.28
65685;BME280;52405;50.844;-1.062;2023-02-07T12:34:51;104010.72;;;11.86;49.94
65685;BME280;52405;50.844;-1.062;2023-02-07T12:37:41;104019.97;;;11.83;49.57
65685;BME280;52405;50.844;-1.062;2023-02-07T12:43:00;104011.78;;;11.78;50.13
65685;BME280;52405;50.844;-1.062;2023-02-07T12:51:20;103976.69;;;11.52;50.13
65685;BME280;52405;50.844;-1.062;2023-02-07T12:59:37;103992.03;;;11.39;50.61
65685;BME280;52405;50.844;-1.062;2023-02-07T13:10:10;103952.22;;;10.89;51.20
65685;BME280;52405;50.844;-1.062;2023-02-07T13:12:52;103937.19;;;10.66;51.45
65685;BME280;52405;50.844;-1.062;2023-02-07T13:15:36;103967.63;;;10.67;52.04
65685;BME280;52405;50.844;-1.062;2023-02-07T13:21:07;103949.19;;;10.34;52.97
65685;BME280;52405;50.844;-1.062;2023-02-07T13:23:42;103952.00;;;10.27;52.63
65685;BME280;52405;50.844;-1.062;2023-02-07T13:26:20;103924.63;;;10.01;53.15
65685;BME280;52405;50.844;-1.062;2023-02-07T13:28:51;103966.72;;;10.08;53.20
65685;BME280;52405;50.844;-1.062;2023-02-07T13:31:21;103948.34;;;9.96;53.75
65685;BME280;52405;50.844;-1.062;2023-02-07T13:33:51;103951.31;;;9.90;53.85
65685;BME280;52405;50.844;-1.062;2023-02-07T13:39:16;103942.06;;;9.83;54.26
65685;BME280;52405;50.844;-1.062;2023-02-07T13:42:13;103941.94;;;9.82;54.44
65685;BME280;52405;50.844;-1.062;2023-02-07T13:44:50;103922.34;;;9.67;54.12
65685;BME280;52405;50.844;-1.062;2023-02-07T13:53:27;103933.03;;;9.70;54.49
65685;BME280;52405;50.844;-1.062;2023-02-07T13:56:02;103931.69;;;9.64;54.83
65685;BME280;52405;50.844;-1.062;2023-02-07T14:01:28;103927.91;;;9.61;54.78
65685;BME280;52405;50.844;-1.062;2023-02-07T14:04:10;103911.69;;;9.44;54.08
65685;BME280;52405;50.844;-1.062;2023-02-07T14:06:38;103921.97;;;9.43;55.03
65685;BME280;52405;50.844;-1.062;2023-02-07T14:11:41;103939.28;;;9.53;54.78
65685;BME280;52405;50.844;-1.062;2023-02-07T14:16:56;103928.22;;;9.45;55.60
65685;BME280;52405;50.844;-1.062;2023-02-07T14:27:33;103931.16;;;9.39;55.67
65685;BME280;52405;50.844;-1.062;2023-02-07T14:32:31;103920.13;;;9.42;55.39
65685;BME280;52405;50.844;-1.062;2023-02-07T14:38:09;103937.19;;;9.49;54.68
65685;BME280;52405;50.844;-1.062;2023-02-07T14:43:15;103930.44;;;9.51;54.85
65685;BME280;52405;50.844;-1.062;2023-02-07T14:46:03;103937.28;;;9.50;54.47
65685;BME280;52405;50.844;-1.062;2023-02-07T14:51:12;103931.84;;;9.47;53.72
65685;BME280;52405;50.844;-1.062;2023-02-07T14:53:42;103950.25;;;9.50;54.06
65685;BME280;52405;50.844;-1.062;2023-02-07T14:56:30;103937.78;;;9.46;53.75
65685;BME280;52405;50.844;-1.062;2023-02-07T14:59:02;103941.03;;;9.43;52.81
65685;BME280;52405;50.844;-1.062;2023-02-07T15:01:28;103941.78;;;9.42;53.20
65685;BME280;52405;50.844;-1.062;2023-02-07T15:04:02;103935.53;;;9.40;51.74
65685;BME280;52405;50.844;-1.062;2023-02-07T15:06:28;103930.06;;;9.37;51.81
65685;BME280;52405;50.844;-1.062;2023-02-07T15:09:00;103942.56;;;9.41;51.25
65685;BME280;52405;50.844;-1.062;2023-02-07T15:11:27;103933.09;;;9.42;51.03
65685;BME280;52405;50.844;-1.062;2023-02-07T15:14:01;103933.84;;;9.41;49.99
65685;BME280;52405;50.844;-1.062;2023-02-07T15:16:34;103920.88;;;9.41;50.06